Guilford, Kansas
Current Conditions -  °F | °C
As of 12:52 AM on Saturday 25 Oct 2014 (Local Time) from KCNU Reporting Station
Clear Clear  
Wind Chill: 62°   Ceiling: Unl
Heat Index: 62°   Visibility: 10mi
Dew Point: 60°   Wind: 5mph
Humidity: 93%   Direction: 200°SSW
Pressure: 30.02"   Gusts: NA
Location:  37.5152°N, 95.6341°W
Report Text: KCNU 250552Z AUTO 20004KT 10SM CLR 17/16 A3002 RMK AO2 SLP159 T01670156 10200 20161 402390117 52001
Loading
Personal Weather Stations






























Interactive Weather Map New forecast layout! Learn more

10-Day Weather Forecast

Advertisements
Track Severe Weather on mobile